Aleksandrovskoe, Russia
Current Conditions -  °F | °C
As of 7:30 PM on Wednesday 22 Oct 2014 (Local Time) from USNN Reporting Station
Light Snow Light Snow  
Wind Chill: -2°   Ceiling: 2300
Heat Index: 10°   Visibility: 4mi
Dew Point:   Wind: 9mph
Humidity: 73%   Direction: 230°SW
Pressure: 29.85"   Gusts: NA
Location:  60.43°N, 77.87°E
Report Text: USNN 221230Z 23004MPS 7000 -SN BKN023 M12/M16 Q1011 NOSIG RMKQFE753 21410262
Loading
Personal Weather Stations






























Interactive Weather Map
Tropical Storm Tracking
New forecast layout! Learn more

10-Day Weather Forecast

Advertisements
Track Severe Weather on mobile